sensor_id;sensor_type;location;lat;lon;timestamp;pressure;altitude;pressure_sealevel;temperature;humidity
11124;BME280;5616;42.692;23.312;2023-03-01T00:00:01;95619.13;;;7.99;90.73
11124;BME280;5616;42.692;23.312;2023-03-01T00:02:37;95622.69;;;8.07;90.12
11124;BME280;5616;42.692;23.312;2023-03-01T00:05:04;95603.59;;;8.09;90.81
11124;BME280;5616;42.692;23.312;2023-03-01T00:07:33;95607.78;;;8.10;90.39
11124;BME280;5616;42.692;23.312;2023-03-01T00:10:01;95612.00;;;7.93;89.15
11124;BME280;5616;42.692;23.312;2023-03-01T00:12:27;95613.69;;;7.77;91.66
11124;BME280;5616;42.692;23.312;2023-03-01T00:14:54;95609.78;;;7.73;91.09
11124;BME280;5616;42.692;23.312;2023-03-01T00:17:21;95600.84;;;7.77;90.54
11124;BME280;5616;42.692;23.312;2023-03-01T00:19:48;95598.09;;;7.78;89.65
11124;BME280;5616;42.692;23.312;2023-03-01T00:22:15;95590.16;;;7.72;90.49
11124;BME280;5616;42.692;23.312;2023-03-01T00:24:41;95589.97;;;7.65;91.52
11124;BME280;5616;42.692;23.312;2023-03-01T00:27:10;95584.84;;;7.65;90.38
11124;BME280;5616;42.692;23.312;2023-03-01T00:29:36;95587.94;;;7.51;90.48
11124;BME280;5616;42.692;23.312;2023-03-01T00:32:03;95574.97;;;7.53;91.60
11124;BME280;5616;42.692;23.312;2023-03-01T00:34:30;95569.69;;;7.36;91.15
11124;BME280;5616;42.692;23.312;2023-03-01T00:36:57;95569.69;;;7.36;92.26
11124;BME280;5616;42.692;23.312;2023-03-01T00:39:30;95568.38;;;7.32;92.28
11124;BME280;5616;42.692;23.312;2023-03-01T00:41:58;95573.44;;;7.24;93.66
11124;BME280;5616;42.692;23.312;2023-03-01T00:44:26;95567.19;;;7.27;92.34
11124;BME280;5616;42.692;23.312;2023-03-01T00:46:53;95566.41;;;7.26;91.77
11124;BME280;5616;42.692;23.312;2023-03-01T00:49:20;95559.66;;;7.25;91.57
11124;BME280;5616;42.692;23.312;2023-03-01T00:51:49;95579.56;;;7.23;92.33
11124;BME280;5616;42.692;23.312;2023-03-01T00:54:17;95562.44;;;7.14;91.85
11124;BME280;5616;42.692;23.312;2023-03-01T00:56:44;95575.91;;;7.08;92.43
11124;BME280;5616;42.692;23.312;2023-03-01T00:59:11;95560.09;;;7.03;93.39
11124;BME280;5616;42.692;23.312;2023-03-01T01:01:40;95562.97;;;7.00;93.01
11124;BME280;5616;42.692;23.312;2023-03-01T01:04:08;95571.84;;;6.88;94.52
11124;BME280;5616;42.692;23.312;2023-03-01T01:06:38;95565.41;;;6.84;93.15
11124;BME280;5616;42.692;23.312;2023-03-01T01:09:06;95567.69;;;6.87;93.16
11124;BME280;5616;42.692;23.312;2023-03-01T01:11:34;95569.16;;;6.90;93.69
11124;BME280;5616;42.692;23.312;2023-03-01T01:14:02;95560.06;;;6.95;93.57
11124;BME280;5616;42.692;23.312;2023-03-01T01:16:29;95562.84;;;6.84;94.65
11124;BME280;5616;42.692;23.312;2023-03-01T01:18:58;95563.41;;;6.78;94.02
11124;BME280;5616;42.692;23.312;2023-03-01T01:21:25;95554.75;;;6.79;94.07
11124;BME280;5616;42.692;23.312;2023-03-01T01:23:53;95557.34;;;6.79;94.67
11124;BME280;5616;42.692;23.312;2023-03-01T01:26:21;95563.69;;;6.75;94.47
11124;BME280;5616;42.692;23.312;2023-03-01T01:28:49;95556.72;;;6.85;93.77
11124;BME280;5616;42.692;23.312;2023-03-01T01:31:17;95564.38;;;6.95;93.69
11124;BME280;5616;42.692;23.312;2023-03-01T01:33:44;95566.22;;;7.02;93.15
11124;BME280;5616;42.692;23.312;2023-03-01T01:36:12;95563.03;;;6.91;93.75
11124;BME280;5616;42.692;23.312;2023-03-01T01:38:40;95573.75;;;7.04;91.81
11124;BME280;5616;42.692;23.312;2023-03-01T01:41:11;95583.56;;;6.91;92.21
11124;BME280;5616;42.692;23.312;2023-03-01T01:43:39;95586.50;;;6.96;91.66
11124;BME280;5616;42.692;23.312;2023-03-01T01:46:15;95580.44;;;6.97;91.65
11124;BME280;5616;42.692;23.312;2023-03-01T01:48:48;95590.69;;;6.97;92.64
11124;BME280;5616;42.692;23.312;2023-03-01T01:51:19;95587.69;;;7.01;91.10
11124;BME280;5616;42.692;23.312;2023-03-01T01:53:51;95583.19;;;7.03;90.78
11124;BME280;5616;42.692;23.312;2023-03-01T01:56:20;95568.91;;;7.01;90.99
11124;BME280;5616;42.692;23.312;2023-03-01T01:58:48;95578.38;;;7.00;89.73
11124;BME280;5616;42.692;23.312;2023-03-01T02:01:16;95568.78;;;6.85;90.14
11124;BME280;5616;42.692;23.312;2023-03-01T02:03:44;95562.19;;;6.82;91.24
11124;BME280;5616;42.692;23.312;2023-03-01T02:06:19;95564.44;;;6.85;90.14
11124;BME280;5616;42.692;23.312;2023-03-01T02:08:49;95559.25;;;6.95;89.38
11124;BME280;5616;42.692;23.312;2023-03-01T02:11:18;95551.66;;;6.93;90.24
11124;BME280;5616;42.692;23.312;2023-03-01T02:13:47;95540.09;;;6.89;90.17
11124;BME280;5616;42.692;23.312;2023-03-01T02:16:15;95539.81;;;6.92;89.96
11124;BME280;5616;42.692;23.312;2023-03-01T02:18:43;95535.25;;;6.86;90.84
11124;BME280;5616;42.692;23.312;2023-03-01T02:21:22;95557.31;;;6.97;88.92
11124;BME280;5616;42.692;23.312;2023-03-01T02:23:53;95539.19;;;6.98;88.57
11124;BME280;5616;42.692;23.312;2023-03-01T02:26:29;95539.72;;;7.02;87.87
11124;BME280;5616;42.692;23.312;2023-03-01T02:29:01;95541.47;;;7.01;88.16
11124;BME280;5616;42.692;23.312;2023-03-01T02:31:27;95546.97;;;7.06;88.03
11124;BME280;5616;42.692;23.312;2023-03-01T02:34:12;95546.69;;;7.09;87.97
11124;BME280;5616;42.692;23.312;2023-03-01T02:36:44;95556.94;;;7.09;87.73
11124;BME280;5616;42.692;23.312;2023-03-01T02:39:15;95547.72;;;6.99;88.79
11124;BME280;5616;42.692;23.312;2023-03-01T02:41:46;95556.59;;;7.04;88.95
11124;BME280;5616;42.692;23.312;2023-03-01T02:44:15;95556.69;;;6.95;88.29
11124;BME280;5616;42.692;23.312;2023-03-01T02:46:43;95547.13;;;7.05;89.48
11124;BME280;5616;42.692;23.312;2023-03-01T02:49:23;95544.34;;;6.98;88.27
11124;BME280;5616;42.692;23.312;2023-03-01T02:52:04;95551.44;;;7.04;89.45
11124;BME280;5616;42.692;23.312;2023-03-01T02:54:38;95544.19;;;7.00;89.08
11124;BME280;5616;42.692;23.312;2023-03-01T02:57:06;95547.66;;;7.08;89.58
11124;BME280;5616;42.692;23.312;2023-03-01T02:59:36;95552.19;;;7.14;89.05
11124;BME280;5616;42.692;23.312;2023-03-01T03:02:07;95550.41;;;7.15;89.70
11124;BME280;5616;42.692;23.312;2023-03-01T03:04:34;95553.44;;;7.10;89.08
11124;BME280;5616;42.692;23.312;2023-03-01T03:07:01;95551.94;;;7.25;89.40
11124;BME280;5616;42.692;23.312;2023-03-01T03:09:28;95546.69;;;7.09;89.38
11124;BME280;5616;42.692;23.312;2023-03-01T03:11:55;95543.97;;;6.93;89.60
11124;BME280;5616;42.692;23.312;2023-03-01T03:14:22;95548.16;;;6.94;90.20
11124;BME280;5616;42.692;23.312;2023-03-01T03:16:50;95551.97;;;7.08;90.53
11124;BME280;5616;42.692;23.312;2023-03-01T03:19:18;95557.78;;;6.92;90.04
11124;BME280;5616;42.692;23.312;2023-03-01T03:21:45;95551.22;;;6.80;90.48
11124;BME280;5616;42.692;23.312;2023-03-01T03:24:12;95564.75;;;6.82;90.99
11124;BME280;5616;42.692;23.312;2023-03-01T03:26:39;95561.41;;;6.72;90.33
11124;BME280;5616;42.692;23.312;2023-03-01T03:29:05;95559.28;;;6.85;90.92
11124;BME280;5616;42.692;23.312;2023-03-01T03:31:33;95564.78;;;6.72;90.77
11124;BME280;5616;42.692;23.312;2023-03-01T03:34:01;95549.09;;;6.58;90.95
11124;BME280;5616;42.692;23.312;2023-03-01T03:36:28;95563.03;;;6.73;90.90
11124;BME280;5616;42.692;23.312;2023-03-01T03:38:55;95559.28;;;6.85;91.51
11124;BME280;5616;42.692;23.312;2023-03-01T03:41:22;95570.38;;;6.86;90.29
11124;BME280;5616;42.692;23.312;2023-03-01T03:44:07;95568.38;;;6.79;91.00
11124;BME280;5616;42.692;23.312;2023-03-01T03:46:34;95573.03;;;6.94;90.92
11124;BME280;5616;42.692;23.312;2023-03-01T03:49:19;95572.28;;;7.01;89.54
11124;BME280;5616;42.692;23.312;2023-03-01T03:51:46;95571.91;;;6.78;90.30
11124;BME280;5616;42.692;23.312;2023-03-01T03:54:13;95575.22;;;6.71;92.05
11124;BME280;5616;42.692;23.312;2023-03-01T03:56:39;95576.59;;;6.83;90.76
11124;BME280;5616;42.692;23.312;2023-03-01T03:59:06;95581.75;;;6.83;91.28
11124;BME280;5616;42.692;23.312;2023-03-01T04:01:34;95571.56;;;6.91;91.36
11124;BME280;5616;42.692;23.312;2023-03-01T04:04:21;95573.53;;;6.97;90.88
11124;BME280;5616;42.692;23.312;2023-03-01T04:06:48;95579.53;;;6.88;90.55
11124;BME280;5616;42.692;23.312;2023-03-01T04:09:15;95567.16;;;6.84;90.36
11124;BME280;5616;42.692;23.312;2023-03-01T04:11:42;95563.59;;;6.67;91.46
11124;BME280;5616;42.692;23.312;2023-03-01T04:14:09;95569.19;;;6.80;89.86
11124;BME280;5616;42.692;23.312;2023-03-01T04:16:36;95557.16;;;6.63;91.21
11124;BME280;5616;42.692;23.312;2023-03-01T04:19:03;95572.66;;;6.71;90.29
11124;BME280;5616;42.692;23.312;2023-03-01T04:21:33;95577.34;;;6.75;90.36
11124;BME280;5616;42.692;23.312;2023-03-01T04:24:01;95583.56;;;6.73;90.29
11124;BME280;5616;42.692;23.312;2023-03-01T04:26:29;95554.22;;;6.58;89.83
11124;BME280;5616;42.692;23.312;2023-03-01T04:28:55;95580.47;;;6.69;90.45
11124;BME280;5616;42.692;23.312;2023-03-01T04:31:22;95573.78;;;6.59;91.13
11124;BME280;5616;42.692;23.312;2023-03-01T04:33:50;95573.66;;;6.60;91.91
11124;BME280;5616;42.692;23.312;2023-03-01T04:36:19;95580.63;;;6.68;91.62
11124;BME280;5616;42.692;23.312;2023-03-01T04:38:47;95574.75;;;6.58;91.78
11124;BME280;5616;42.692;23.312;2023-03-01T04:41:16;95570.16;;;6.34;92.87
11124;BME280;5616;42.692;23.312;2023-03-01T04:43:43;95574.47;;;6.34;93.16
11124;BME280;5616;42.692;23.312;2023-03-01T04:46:12;95574.75;;;6.31;93.80
11124;BME280;5616;42.692;23.312;2023-03-01T04:48:41;95572.38;;;6.20;93.93
11124;BME280;5616;42.692;23.312;2023-03-01T04:51:08;95570.47;;;6.22;93.47
11124;BME280;5616;42.692;23.312;2023-03-01T04:53:39;95569.47;;;6.32;93.43
11124;BME280;5616;42.692;23.312;2023-03-01T04:56:08;95560.94;;;6.41;92.96
11124;BME280;5616;42.692;23.312;2023-03-01T04:58:35;95574.13;;;6.46;93.50
11124;BME280;5616;42.692;23.312;2023-03-01T05:01:08;95569.56;;;6.40;93.11
11124;BME280;5616;42.692;23.312;2023-03-01T05:03:41;95569.91;;;6.28;93.70
11124;BME280;5616;42.692;23.312;2023-03-01T05:06:09;95566.91;;;6.32;93.78
11124;BME280;5616;42.692;23.312;2023-03-01T05:08:36;95574.69;;;6.40;94.07
11124;BME280;5616;42.692;23.312;2023-03-01T05:11:03;95572.66;;;6.44;93.66
11124;BME280;5616;42.692;23.312;2023-03-01T05:13:32;95573.69;;;6.51;93.24
11124;BME280;5616;42.692;23.312;2023-03-01T05:16:00;95568.72;;;6.49;92.92
11124;BME280;5616;42.692;23.312;2023-03-01T05:18:29;95570.56;;;6.57;93.19
11124;BME280;5616;42.692;23.312;2023-03-01T05:21:02;95572.91;;;6.50;91.87
11124;BME280;5616;42.692;23.312;2023-03-01T05:23:29;95577.66;;;6.45;93.41
11124;BME280;5616;42.692;23.312;2023-03-01T05:25:57;95577.06;;;6.51;92.66
11124;BME280;5616;42.692;23.312;2023-03-01T05:28:25;95580.00;;;6.56;92.13
11124;BME280;5616;42.692;23.312;2023-03-01T05:30:55;95573.84;;;6.49;92.52
11124;BME280;5616;42.692;23.312;2023-03-01T05:33:22;95575.31;;;6.52;92.28
11124;BME280;5616;42.692;23.312;2023-03-01T05:35:50;95568.75;;;6.67;93.39
11124;BME280;5616;42.692;23.312;2023-03-01T05:38:18;95568.09;;;6.65;93.08
11124;BME280;5616;42.692;23.312;2023-03-01T05:40:46;95556.50;;;6.61;92.16
11124;BME280;5616;42.692;23.312;2023-03-01T05:43:15;95578.53;;;6.81;91.28
11124;BME280;5616;42.692;23.312;2023-03-01T05:45:43;95580.16;;;6.82;91.25
11124;BME280;5616;42.692;23.312;2023-03-01T05:48:12;95582.06;;;6.53;91.64
11124;BME280;5616;42.692;23.312;2023-03-01T05:50:40;95585.38;;;6.63;92.28
11124;BME280;5616;42.692;23.312;2023-03-01T05:53:10;95586.69;;;6.67;92.12
11124;BME280;5616;42.692;23.312;2023-03-01T05:55:38;95586.53;;;6.51;92.27
11124;BME280;5616;42.692;23.312;2023-03-01T05:58:07;95593.22;;;6.61;91.47
11124;BME280;5616;42.692;23.312;2023-03-01T06:00:35;95591.75;;;6.59;92.21
11124;BME280;5616;42.692;23.312;2023-03-01T06:03:02;95587.50;;;6.50;92.09
11124;BME280;5616;42.692;23.312;2023-03-01T06:05:31;95599.97;;;6.62;92.76
11124;BME280;5616;42.692;23.312;2023-03-01T06:07:59;95603.53;;;6.52;92.55
11124;BME280;5616;42.692;23.312;2023-03-01T06:10:26;95610.56;;;6.50;93.39
11124;BME280;5616;42.692;23.312;2023-03-01T06:12:53;95607.59;;;6.72;92.41
11124;BME280;5616;42.692;23.312;2023-03-01T06:15:20;95616.72;;;6.84;90.89
11124;BME280;5616;42.692;23.312;2023-03-01T06:17:47;95619.56;;;6.63;91.22
11124;BME280;5616;42.692;23.312;2023-03-01T06:20:15;95621.16;;;6.64;91.81
11124;BME280;5616;42.692;23.312;2023-03-01T06:22:44;95621.50;;;6.79;91.20
11124;BME280;5616;42.692;23.312;2023-03-01T06:25:12;95616.63;;;6.76;91.05
11124;BME280;5616;42.692;23.312;2023-03-01T06:27:40;95614.97;;;6.85;90.18
11124;BME280;5616;42.692;23.312;2023-03-01T06:30:08;95611.78;;;6.73;90.55
11124;BME280;5616;42.692;23.312;2023-03-01T06:32:36;95616.19;;;6.63;91.39
11124;BME280;5616;42.692;23.312;2023-03-01T06:35:03;95610.69;;;6.75;91.41
11124;BME280;5616;42.692;23.312;2023-03-01T06:37:30;95619.88;;;6.51;92.87
11124;BME280;5616;42.692;23.312;2023-03-01T06:39:58;95621.31;;;6.63;92.37
11124;BME280;5616;42.692;23.312;2023-03-01T06:42:25;95620.13;;;6.57;91.78
11124;BME280;5616;42.692;23.312;2023-03-01T06:44:51;95625.34;;;6.65;92.21
11124;BME280;5616;42.692;23.312;2023-03-01T06:47:18;95620.75;;;6.69;90.60
11124;BME280;5616;42.692;23.312;2023-03-01T06:49:45;95615.09;;;6.65;91.30
11124;BME280;5616;42.692;23.312;2023-03-01T06:52:12;95623.22;;;6.61;91.73
11124;BME280;5616;42.692;23.312;2023-03-01T06:54:39;95616.72;;;6.84;91.66
11124;BME280;5616;42.692;23.312;2023-03-01T06:57:07;95627.81;;;7.02;90.79
11124;BME280;5616;42.692;23.312;2023-03-01T06:59:33;95609.59;;;6.96;90.40
11124;BME280;5616;42.692;23.312;2023-03-01T07:02:00;95612.50;;;6.93;90.07
11124;BME280;5616;42.692;23.312;2023-03-01T07:04:27;95617.31;;;6.96;90.99
11124;BME280;5616;42.692;23.312;2023-03-01T07:06:56;95612.72;;;6.99;89.97
11124;BME280;5616;42.692;23.312;2023-03-01T07:09:23;95620.78;;;7.04;89.04
11124;BME280;5616;42.692;23.312;2023-03-01T07:11:50;95617.91;;;7.07;88.29
11124;BME280;5616;42.692;23.312;2023-03-01T07:14:18;95614.91;;;6.94;89.40
11124;BME280;5616;42.692;23.312;2023-03-01T07:16:45;95622.59;;;6.94;90.11
11124;BME280;5616;42.692;23.312;2023-03-01T07:19:12;95610.78;;;7.01;89.21
11124;BME280;5616;42.692;23.312;2023-03-01T07:21:39;95619.75;;;7.15;88.60
11124;BME280;5616;42.692;23.312;2023-03-01T07:24:06;95614.16;;;7.19;87.92
11124;BME280;5616;42.692;23.312;2023-03-01T07:26:33;95602.22;;;7.10;88.32
11124;BME280;5616;42.692;23.312;2023-03-01T07:29:00;95613.50;;;7.17;86.66
11124;BME280;5616;42.692;23.312;2023-03-01T07:31:29;95600.97;;;7.14;86.84
11124;BME280;5616;42.692;23.312;2023-03-01T07:33:56;95600.47;;;7.11;87.24
11124;BME280;5616;42.692;23.312;2023-03-01T07:36:23;95600.91;;;7.24;88.38
11124;BME280;5616;42.692;23.312;2023-03-01T07:38:50;95599.56;;;7.37;87.53
11124;BME280;5616;42.692;23.312;2023-03-01T07:41:17;95608.66;;;7.50;87.26
11124;BME280;5616;42.692;23.312;2023-03-01T07:43:44;95609.03;;;7.55;86.02
11124;BME280;5616;42.692;23.312;2023-03-01T07:46:11;95612.59;;;7.62;86.00
11124;BME280;5616;42.692;23.312;2023-03-01T07:48:39;95610.53;;;7.65;84.72
11124;BME280;5616;42.692;23.312;2023-03-01T07:51:07;95598.56;;;7.56;86.21
11124;BME280;5616;42.692;23.312;2023-03-01T07:53:34;95605.41;;;7.65;85.28
11124;BME280;5616;42.692;23.312;2023-03-01T07:56:02;95600.97;;;7.75;84.57
11124;BME280;5616;42.692;23.312;2023-03-01T07:58:29;95601.66;;;7.85;85.02
11124;BME280;5616;42.692;23.312;2023-03-01T08:00:56;95592.31;;;7.76;83.93
11124;BME280;5616;42.692;23.312;2023-03-01T08:03:23;95591.03;;;7.80;84.73
11124;BME280;5616;42.692;23.312;2023-03-01T08:05:51;95591.31;;;7.95;84.33
11124;BME280;5616;42.692;23.312;2023-03-01T08:08:18;95592.06;;;7.87;83.31
11124;BME280;5616;42.692;23.312;2023-03-01T08:10:44;95575.38;;;7.91;82.84
11124;BME280;5616;42.692;23.312;2023-03-01T08:13:11;95589.13;;;8.08;81.83
11124;BME280;5616;42.692;23.312;2023-03-01T08:15:38;95582.81;;;8.02;82.44
11124;BME280;5616;42.692;23.312;2023-03-01T08:18:05;95583.78;;;8.01;82.71
11124;BME280;5616;42.692;23.312;2023-03-01T08:20:32;95583.19;;;8.08;82.24
11124;BME280;5616;42.692;23.312;2023-03-01T08:23:00;95578.72;;;8.18;81.88
11124;BME280;5616;42.692;23.312;2023-03-01T08:25:27;95583.16;;;8.33;81.31
11124;BME280;5616;42.692;23.312;2023-03-01T08:27:54;95589.34;;;8.56;80.05
11124;BME280;5616;42.692;23.312;2023-03-01T08:30:21;95590.38;;;8.72;80.02
11124;BME280;5616;42.692;23.312;2023-03-01T08:32:50;95586.19;;;8.71;79.64
11124;BME280;5616;42.692;23.312;2023-03-01T08:35:17;95589.81;;;8.52;80.51
11124;BME280;5616;42.692;23.312;2023-03-01T08:37:44;95587.56;;;8.49;79.34
11124;BME280;5616;42.692;23.312;2023-03-01T08:40:13;95583.06;;;8.51;80.23
11124;BME280;5616;42.692;23.312;2023-03-01T08:42:41;95578.34;;;8.38;80.26
11124;BME280;5616;42.692;23.312;2023-03-01T08:45:10;95581.81;;;8.55;79.52
11124;BME280;5616;42.692;23.312;2023-03-01T08:47:37;95585.19;;;8.55;79.81
11124;BME280;5616;42.692;23.312;2023-03-01T08:50:04;95586.03;;;8.72;80.41
11124;BME280;5616;42.692;23.312;2023-03-01T08:52:32;95581.69;;;8.73;78.41
11124;BME280;5616;42.692;23.312;2023-03-01T08:54:59;95584.25;;;8.73;78.52
11124;BME280;5616;42.692;23.312;2023-03-01T08:57:29;95589.28;;;8.90;77.21
11124;BME280;5616;42.692;23.312;2023-03-01T08:59:56;95579.97;;;8.89;77.36
11124;BME280;5616;42.692;23.312;2023-03-01T09:02:23;95590.28;;;8.97;76.96
11124;BME280;5616;42.692;23.312;2023-03-01T09:04:49;95579.66;;;9.00;75.59
11124;BME280;5616;42.692;23.312;2023-03-01T09:07:16;95583.03;;;9.01;75.34
11124;BME280;5616;42.692;23.312;2023-03-01T09:09:43;95571.28;;;9.14;74.72
11124;BME280;5616;42.692;23.312;2023-03-01T09:12:10;95575.19;;;9.27;74.22
11124;BME280;5616;42.692;23.312;2023-03-01T09:14:38;95582.44;;;9.31;75.01
11124;BME280;5616;42.692;23.312;2023-03-01T09:17:06;95589.53;;;9.29;73.85
11124;BME280;5616;42.692;23.312;2023-03-01T09:19:33;95585.50;;;9.27;73.16
11124;BME280;5616;42.692;23.312;2023-03-01T09:22:00;95576.94;;;9.18;75.02
11124;BME280;5616;42.692;23.312;2023-03-01T09:24:27;95573.72;;;9.08;74.76
11124;BME280;5616;42.692;23.312;2023-03-01T09:26:55;95584.81;;;9.24;75.20
11124;BME280;5616;42.692;23.312;2023-03-01T09:29:22;95573.41;;;9.35;74.30
11124;BME280;5616;42.692;23.312;2023-03-01T09:31:51;95568.25;;;9.27;75.57
11124;BME280;5616;42.692;23.312;2023-03-01T09:34:20;95580.34;;;9.27;74.44
11124;BME280;5616;42.692;23.312;2023-03-01T09:36:49;95574.53;;;9.16;74.26
11124;BME280;5616;42.692;23.312;2023-03-01T09:39:16;95578.69;;;9.01;75.71
11124;BME280;5616;42.692;23.312;2023-03-01T09:41:47;95561.81;;;9.15;75.77
11124;BME280;5616;42.692;23.312;2023-03-01T09:44:26;95562.44;;;9.25;76.57
11124;BME280;5616;42.692;23.312;2023-03-01T09:46:56;95566.66;;;9.26;75.67
11124;BME280;5616;42.692;23.312;2023-03-01T09:49:25;95556.00;;;9.53;75.27
11124;BME280;5616;42.692;23.312;2023-03-01T09:51:56;95564.69;;;9.76;74.71
11124;BME280;5616;42.692;23.312;2023-03-01T09:54:24;95560.34;;;9.61;74.61
11124;BME280;5616;42.692;23.312;2023-03-01T09:57:01;95545.84;;;9.68;72.95
11124;BME280;5616;42.692;23.312;2023-03-01T09:59:42;95549.34;;;9.75;72.77
11124;BME280;5616;42.692;23.312;2023-03-01T10:02:27;95549.03;;;9.70;73.35
11124;BME280;5616;42.692;23.312;2023-03-01T10:05:04;95532.13;;;9.75;73.92
11124;BME280;5616;42.692;23.312;2023-03-01T10:07:39;95538.03;;;10.00;72.29
11124;BME280;5616;42.692;23.312;2023-03-01T10:10:18;95533.25;;;9.65;73.08
11124;BME280;5616;42.692;23.312;2023-03-01T10:12:48;95539.72;;;9.77;72.49
11124;BME280;5616;42.692;23.312;2023-03-01T10:15:18;95546.63;;;9.84;72.56
11124;BME280;5616;42.692;23.312;2023-03-01T10:17:52;95548.69;;;9.97;72.04
11124;BME280;5616;42.692;23.312;2023-03-01T10:20:23;95538.56;;;9.88;72.40
11124;BME280;5616;42.692;23.312;2023-03-01T10:22:51;95536.31;;;9.84;72.12
11124;BME280;5616;42.692;23.312;2023-03-01T10:25:44;95536.44;;;9.83;72.66
11124;BME280;5616;42.692;23.312;2023-03-01T10:28:17;95519.13;;;10.08;73.30
11124;BME280;5616;42.692;23.312;2023-03-01T10:30:44;95526.31;;;9.81;72.97
11124;BME280;5616;42.692;23.312;2023-03-01T10:33:17;95525.50;;;9.81;72.63
11124;BME280;5616;42.692;23.312;2023-03-01T10:35:45;95526.66;;;9.62;73.46
11124;BME280;5616;42.692;23.312;2023-03-01T10:38:15;95525.19;;;9.76;72.83
11124;BME280;5616;42.692;23.312;2023-03-01T10:40:53;95520.03;;;9.76;72.80
11124;BME280;5616;42.692;23.312;2023-03-01T10:43:23;95524.53;;;9.90;71.90
11124;BME280;5616;42.692;23.312;2023-03-01T10:45:50;95519.81;;;9.94;73.09
11124;BME280;5616;42.692;23.312;2023-03-01T10:48:20;95516.53;;;10.24;71.32
11124;BME280;5616;42.692;23.312;2023-03-01T10:50:51;95519.03;;;10.40;70.07
11124;BME280;5616;42.692;23.312;2023-03-01T10:53:33;95517.91;;;10.42;70.04
11124;BME280;5616;42.692;23.312;2023-03-01T10:56:03;95504.81;;;10.44;69.51
11124;BME280;5616;42.692;23.312;2023-03-01T10:58:32;95514.00;;;10.47;69.74
11124;BME280;5616;42.692;23.312;2023-03-01T11:01:01;95506.88;;;10.49;69.73
11124;BME280;5616;42.692;23.312;2023-03-01T11:03:32;95515.56;;;10.56;69.21
11124;BME280;5616;42.692;23.312;2023-03-01T11:06:05;95518.34;;;10.46;69.41
11124;BME280;5616;42.692;23.312;2023-03-01T11:08:47;95510.75;;;10.53;69.04
11124;BME280;5616;42.692;23.312;2023-03-01T11:11:29;95510.75;;;10.53;69.50
11124;BME280;5616;42.692;23.312;2023-03-01T11:13:59;95507.06;;;10.47;70.08
11124;BME280;5616;42.692;23.312;2023-03-01T11:16:33;95520.63;;;10.41;70.63
11124;BME280;5616;42.692;23.312;2023-03-01T11:19:14;95513.31;;;10.53;70.72
11124;BME280;5616;42.692;23.312;2023-03-01T11:21:46;95511.63;;;10.37;69.66
11124;BME280;5616;42.692;23.312;2023-03-01T11:24:16;95504.03;;;10.35;69.56
11124;BME280;5616;42.692;23.312;2023-03-01T11:26:47;95501.53;;;10.19;69.74
11124;BME280;5616;42.692;23.312;2023-03-01T11:29:25;95492.66;;;10.53;69.29
11124;BME280;5616;42.692;23.312;2023-03-01T11:31:56;95496.94;;;10.68;68.67
11124;BME280;5616;42.692;23.312;2023-03-01T11:34:35;95501.84;;;10.55;68.91
11124;BME280;5616;42.692;23.312;2023-03-01T11:37:12;95512.53;;;10.52;69.06
11124;BME280;5616;42.692;23.312;2023-03-01T11:39:48;95493.88;;;10.65;68.94
11124;BME280;5616;42.692;23.312;2023-03-01T11:42:20;95490.50;;;10.64;68.50
11124;BME280;5616;42.692;23.312;2023-03-01T11:44:50;95485.31;;;10.64;68.59
11124;BME280;5616;42.692;23.312;2023-03-01T11:47:30;95471.22;;;10.75;68.82
11124;BME280;5616;42.692;23.312;2023-03-01T11:50:17;95473.84;;;10.67;69.15
11124;BME280;5616;42.692;23.312;2023-03-01T11:52:56;95474.09;;;10.57;69.69
11124;BME280;5616;42.692;23.312;2023-03-01T11:55:35;95468.09;;;10.34;69.72
11124;BME280;5616;42.692;23.312;2023-03-01T11:58:22;95459.31;;;10.04;71.82
11124;BME280;5616;42.692;23.312;2023-03-01T12:01:10;95465.06;;;9.83;72.99
11124;BME280;5616;42.692;23.312;2023-03-01T12:04:07;95457.44;;;9.98;72.68
11124;BME280;5616;42.692;23.312;2023-03-01T12:06:52;95469.50;;;10.14;71.47
11124;BME280;5616;42.692;23.312;2023-03-01T12:09:38;95467.50;;;10.24;70.87
11124;BME280;5616;42.692;23.312;2023-03-01T12:12:34;95455.25;;;10.18;71.49
11124;BME280;5616;42.692;23.312;2023-03-01T12:15:37;95457.56;;;10.05;73.26
11124;BME280;5616;42.692;23.312;2023-03-01T12:21:21;95446.53;;;10.50;71.53
11124;BME280;5616;42.692;23.312;2023-03-01T12:27:08;95450.22;;;10.55;69.89
11124;BME280;5616;42.692;23.312;2023-03-01T12:29:45;95451.47;;;10.59;70.39
11124;BME280;5616;42.692;23.312;2023-03-01T12:32:25;95451.03;;;10.78;70.11
11124;BME280;5616;42.692;23.312;2023-03-01T12:35:31;95446.94;;;10.84;69.75
11124;BME280;5616;42.692;23.312;2023-03-01T12:38:08;95440.50;;;10.34;70.37
11124;BME280;5616;42.692;23.312;2023-03-01T12:40:51;95443.13;;;10.26;70.21
11124;BME280;5616;42.692;23.312;2023-03-01T12:43:32;95430.44;;;10.09;72.21
11124;BME280;5616;42.692;23.312;2023-03-01T12:46:12;95423.66;;;10.16;71.28
11124;BME280;5616;42.692;23.312;2023-03-01T12:48:47;95433.88;;;9.93;73.04
11124;BME280;5616;42.692;23.312;2023-03-01T12:51:20;95428.41;;;9.96;72.00
11124;BME280;5616;42.692;23.312;2023-03-01T12:53:50;95431.22;;;9.78;72.76
11124;BME280;5616;42.692;23.312;2023-03-01T12:56:20;95437.09;;;9.48;75.02
11124;BME280;5616;42.692;23.312;2023-03-01T12:58:57;95436.75;;;9.59;74.64
11124;BME280;5616;42.692;23.312;2023-03-01T13:01:34;95442.16;;;9.80;73.03
11124;BME280;5616;42.692;23.312;2023-03-01T13:04:26;95437.38;;;9.69;74.53
11124;BME280;5616;42.692;23.312;2023-03-01T13:07:19;95433.78;;;9.87;73.63
11124;BME280;5616;42.692;23.312;2023-03-01T13:09:52;95428.91;;;9.92;73.84
11124;BME280;5616;42.692;23.312;2023-03-01T13:12:49;95430.91;;;10.20;73.95
11124;BME280;5616;42.692;23.312;2023-03-01T13:15:32;95441.88;;;10.14;73.00
11124;BME280;5616;42.692;23.312;2023-03-01T13:18:02;95439.31;;;10.06;73.67
11124;BME280;5616;42.692;23.312;2023-03-01T13:20:34;95435.78;;;10.07;73.64
11124;BME280;5616;42.692;23.312;2023-03-01T13:23:13;95435.75;;;9.76;74.60
11124;BME280;5616;42.692;23.312;2023-03-01T13:26:09;95443.53;;;9.60;75.23
11124;BME280;5616;42.692;23.312;2023-03-01T13:28:40;95443.69;;;9.59;75.59
11124;BME280;5616;42.692;23.312;2023-03-01T13:31:11;95443.38;;;9.54;75.30
11124;BME280;5616;42.692;23.312;2023-03-01T13:33:57;95448.25;;;9.24;77.59